Time;durP1;ratioP1;P1;durP2;ratioP2;P2;SDS_P1;SDS_P2;PMS_P1;PMS_P2;Temp;Humidity;BMP_temperature;BMP_pressure;BME280_temperature;BME280_humidity;BME280_pressure;Samples;Min_cycle;Max_cycle;Signal;HPM_P1;HPM_P2
2023/09/03 00:04:02;;;;;;;;;;;16.00;99.90;;;;;;12271926;28;19938;-83
2023/09/03 00:10:04;;;;;;;;;;;15.90;99.90;;;;;;12276985;28;19930;-83
2023/09/03 04:50:38;;;;;;;;;;;14.00;99.90;;;;;;15707062;22;1950892;-36
2023/09/03 04:56:40;;;;;;;;;;;14.10;99.90;;;;;;15687186;22;20001;-36
2023/09/03 05:02:42;;;;;;;;;;;14.20;99.90;;;;;;15684679;22;20304;-35
2023/09/03 05:08:45;;;;;;;;;;;13.90;99.90;;;;;;15693179;22;19927;-36
2023/09/03 05:14:47;;;;;;;;;;;14.00;99.90;;;;;;15689631;22;20290;-36
2023/09/03 05:20:49;;;;;;;;;;;14.00;99.90;;;;;;15693220;22;19962;-36
2023/09/03 05:26:50;;;;;;;;;;;13.90;99.90;;;;;;15675055;22;20267;-37
2023/09/03 05:32:52;;;;;;;;;;;14.10;99.90;;;;;;15669602;22;19986;-37
2023/09/03 05:38:54;;;;;;;;;;;14.10;99.90;;;;;;15696085;22;20360;-36
2023/09/03 05:44:56;;;;;;;;;;;14.10;99.90;;;;;;15698845;22;20240;-36
2023/09/03 05:51:03;;;;;;;;;;;14.10;99.90;;;;;;15700630;22;20259;-35
2023/09/03 05:57:05;;;;;;;;;;;14.20;99.90;;;;;;15699626;22;19971;-35
2023/09/03 06:03:06;;;;;;;;;;;14.10;99.90;;;;;;15699350;22;19923;-36
2023/09/03 06:09:09;;;;;;;;;;;14.20;99.90;;;;;;15672470;22;19923;-36
2023/09/03 06:15:10;;;;;;;;;;;14.20;99.90;;;;;;15695579;22;19924;-36
2023/09/03 06:21:12;;;;;;;;;;;14.30;99.90;;;;;;15693865;22;20187;-36
2023/09/03 06:27:14;;;;;;;;;;;14.30;99.90;;;;;;15697436;22;19954;-36
2023/09/03 06:33:16;;;;;;;;;;;14.40;99.90;;;;;;15696845;22;19923;-36
2023/09/03 06:39:18;;;;;;;;;;;14.60;99.90;;;;;;15701863;22;20039;-36
2023/09/03 06:45:19;;;;;;;;;;;14.60;99.90;;;;;;15697981;22;20336;-36
2023/09/03 06:51:21;;;;;;;;;;;14.60;99.90;;;;;;15694982;22;20015;-36
2023/09/03 06:57:24;;;;;;;;;;;14.80;99.90;;;;;;15696187;22;20005;-38
2023/09/03 07:03:30;;;;;;;;;;;15.20;99.90;;;;;;15697464;22;20169;-36
2023/09/03 07:09:33;;;;;;;;;;;15.50;99.90;;;;;;15694225;22;19922;-36
2023/09/03 07:15:35;;;;;;;;;;;15.50;99.90;;;;;;15698720;22;19927;-36
2023/09/03 07:21:37;;;;;;;;;;;15.50;99.90;;;;;;15690632;22;19922;-36
2023/09/03 07:27:39;;;;;;;;;;;15.60;99.90;;;;;;15697738;22;19929;-36
2023/09/03 07:33:41;;;;;;;;;;;15.80;99.90;;;;;;15695268;22;20368;-36
2023/09/03 07:39:42;;;;;;;;;;;15.50;99.90;;;;;;15696620;22;19961;-36
2023/09/03 07:45:45;;;;;;;;;;;15.90;99.90;;;;;;15692152;22;19997;-36
2023/09/03 07:51:46;;;;;;;;;;;16.10;99.90;;;;;;15696247;22;20392;-36
2023/09/03 07:57:48;;;;;;;;;;;16.10;99.90;;;;;;15672359;22;19922;-36
2023/09/03 08:03:50;;;;;;;;;;;16.00;99.90;;;;;;15695830;22;19929;-39
2023/09/03 08:09:52;;;;;;;;;;;16.40;99.90;;;;;;15695155;22;19923;-36
2023/09/03 08:15:54;;;;;;;;;;;16.40;99.90;;;;;;15696627;22;19923;-36
2023/09/03 08:21:56;;;;;;;;;;;16.60;99.90;;;;;;15668964;22;19923;-36
2023/09/03 08:27:57;;;;;;;;;;;16.70;99.90;;;;;;15698528;22;19927;-37
2023/09/03 08:33:59;;;;;;;;;;;16.80;99.90;;;;;;15697941;22;19922;-36
2023/09/03 08:40:01;;;;;;;;;;;17.10;99.90;;;;;;15698782;22;20387;-36
2023/09/03 08:46:07;;;;;;;;;;;17.10;99.90;;;;;;15694228;22;20218;-36
2023/09/03 08:52:09;;;;;;;;;;;17.30;99.90;;;;;;15700910;22;20256;-36
2023/09/03 08:58:12;;;;;;;;;;;17.50;99.90;;;;;;15703495;22;19923;-36
2023/09/03 09:04:14;;;;;;;;;;;17.80;99.90;;;;;;15702220;22;19949;-36
2023/09/03 09:10:20;;;;;;;;;;;17.90;99.90;;;;;;15703285;22;19923;-36
2023/09/03 09:16:22;;;;;;;;;;;18.30;99.90;;;;;;15702454;22;20023;-36
2023/09/03 09:22:23;;;;;;;;;;;18.60;99.90;;;;;;15700730;22;20288;-36
2023/09/03 09:28:27;;;;;;;;;;;19.00;99.90;;;;;;15699618;22;19922;-36
2023/09/03 09:34:29;;;;;;;;;;;18.30;18.80;;;;;;15699548;22;20007;-36
2023/09/03 09:40:31;;;;;;;;;;;18.60;99.90;;;;;;15700563;22;19957;-36
2023/09/03 09:46:35;;;;;;;;;;;18.80;99.90;;;;;;15694746;22;19929;-36
2023/09/03 09:52:37;;;;;;;;;;;19.20;77.60;;;;;;15667342;22;20264;-36
2023/09/03 09:58:40;;;;;;;;;;;18.90;99.60;;;;;;15697673;22;19976;-36
2023/09/03 10:04:42;;;;;;;;;;;19.30;99.90;;;;;;15703966;22;19930;-37
2023/09/03 10:10:44;;;;;;;;;;;19.30;77.60;;;;;;15698703;22;20344;-36
2023/09/03 10:16:46;;;;;;;;;;;19.40;99.90;;;;;;15694069;22;19922;-37
2023/09/03 10:22:49;;;;;;;;;;;19.30;23.60;;;;;;15700981;22;20778;-37
2023/09/03 10:28:54;;;;;;;;;;;19.50;99.90;;;;;;15698427;22;20260;-36
2023/09/03 10:34:56;;;;;;;;;;;19.90;7.00;;;;;;15699879;22;20003;-36
2023/09/03 10:41:14;;;;;;;;;;;20.20;1.00;;;;;;15696110;22;19922;-37
2023/09/03 10:47:18;;;;;;;;;;;20.10;40.80;;;;;;15701113;22;19926;-38
2023/09/03 10:53:45;;;;;;;;;;;19.90;1.00;;;;;;15699552;22;20225;-36
2023/09/03 11:00:05;;;;;;;;;;;19.70;1.00;;;;;;15687938;22;20001;-36
2023/09/03 11:06:18;;;;;;;;;;;19.90;25.50;;;;;;15697321;22;20089;-37
2023/09/03 11:12:20;;;;;;;;;;;20.10;1.00;;;;;;15697735;22;19949;-37
2023/09/03 11:18:22;;;;;;;;;;;20.30;39.20;;;;;;15677408;22;19997;-37
2023/09/03 11:24:27;;;;;;;;;;;20.30;1.00;;;;;;15695129;22;19923;-37
2023/09/03 11:30:29;;;;;;;;;;;20.30;48.80;;;;;;15695783;22;19969;-37
2023/09/03 11:36:31;;;;;;;;;;;20.40;1.00;;;;;;15700764;22;19923;-36
2023/09/03 11:42:33;;;;;;;;;;;20.80;1.00;;;;;;15696195;22;20009;-36
2023/09/03 11:48:36;;;;;;;;;;;20.70;1.00;;;;;;15695777;22;19958;-37
2023/09/03 11:54:38;;;;;;;;;;;20.70;1.00;;;;;;15695673;22;19995;-37
2023/09/03 12:00:41;;;;;;;;;;;20.90;1.00;;;;;;15673294;22;20216;-37
2023/09/03 12:06:43;;;;;;;;;;;20.90;5.10;;;;;;15676239;22;20162;-37
2023/09/03 12:12:45;;;;;;;;;;;21.00;1.00;;;;;;15681488;22;20263;-37
2023/09/03 12:18:56;;;;;;;;;;;20.80;99.90;;;;;;15680093;22;20220;-37
2023/09/03 12:25:03;;;;;;;;;;;21.10;1.00;;;;;;15680068;22;19923;-37
2023/09/03 12:31:06;;;;;;;;;;;21.50;1.00;;;;;;15679310;22;19958;-38
2023/09/03 12:37:08;;;;;;;;;;;20.60;87.70;;;;;;15685142;22;19929;-37
2023/09/03 12:43:10;;;;;;;;;;;20.90;1.00;;;;;;15679649;22;20374;-37
2023/09/03 12:49:12;;;;;;;;;;;21.10;99.90;;;;;;15677208;22;20036;-38
2023/09/03 12:55:13;;;;;;;;;;;21.70;1.00;;;;;;15671464;22;19952;-37
2023/09/03 13:01:15;;;;;;;;;;;21.80;1.00;;;;;;15697895;22;19986;-37
2023/09/03 13:07:17;;;;;;;;;;;21.90;1.00;;;;;;15697401;22;19993;-38
2023/09/03 13:13:19;;;;;;;;;;;22.00;1.00;;;;;;15665845;22;20089;-37
2023/09/03 13:19:24;;;;;;;;;;;21.70;99.90;;;;;;15698440;22;19944;-37
2023/09/03 13:25:26;;;;;;;;;;;21.40;99.90;;;;;;15697534;22;19923;-37
2023/09/03 13:31:35;;;;;;;;;;;21.70;1.00;;;;;;15697843;22;19929;-37
2023/09/03 13:37:37;;;;;;;;;;;21.60;99.90;;;;;;15698176;22;19923;-37
2023/09/03 13:43:43;;;;;;;;;;;21.60;1.00;;;;;;15700620;22;20307;-37
2023/09/03 13:49:45;;;;;;;;;;;21.50;1.00;;;;;;15698274;22;19953;-37
2023/09/03 13:55:47;;;;;;;;;;;21.20;99.90;;;;;;15698361;22;20379;-37
2023/09/03 14:01:48;;;;;;;;;;;21.00;1.00;;;;;;15636105;22;19979;-36
2023/09/03 14:07:50;;;;;;;;;;;21.10;60.90;;;;;;15680187;22;19930;-37
2023/09/03 14:13:52;;;;;;;;;;;21.20;99.90;;;;;;15682682;22;19922;-37
2023/09/03 14:19:54;;;;;;;;;;;21.40;99.90;;;;;;15679568;22;20252;-36
2023/09/03 14:25:55;;;;;;;;;;;21.00;1.00;;;;;;15676042;22;20044;-36
2023/09/03 14:31:57;;;;;;;;;;;21.00;1.00;;;;;;15687524;22;20268;-37
2023/09/03 14:37:59;;;;;;;;;;;20.90;1.00;;;;;;15679571;22;19969;-37
2023/09/03 14:44:01;;;;;;;;;;;20.60;1.00;;;;;;15681139;22;20060;-37
2023/09/03 14:50:04;;;;;;;;;;;20.60;1.00;;;;;;15678385;22;19922;-37
2023/09/03 14:56:06;;;;;;;;;;;20.80;1.00;;;;;;15682391;22;20472;-37
2023/09/03 15:02:08;;;;;;;;;;;21.00;99.90;;;;;;15662394;22;20655;-37
2023/09/03 15:08:11;;;;;;;;;;;21.30;1.00;;;;;;15666014;22;20335;-37
2023/09/03 15:14:14;;;;;;;;;;;21.30;1.00;;;;;;15701359;22;20253;-37
2023/09/03 15:20:16;;;;;;;;;;;21.20;1.00;;;;;;15671260;22;20626;-36
2023/09/03 15:26:17;;;;;;;;;;;21.10;1.00;;;;;;15701680;22;19923;-37
2023/09/03 15:32:19;;;;;;;;;;;21.30;1.00;;;;;;15671764;22;20019;-37
2023/09/03 15:38:21;;;;;;;;;;;21.00;1.00;;;;;;15700422;22;20347;-37
2023/09/03 15:44:27;;;;;;;;;;;20.70;1.00;;;;;;15696154;22;20191;-36
2023/09/03 15:50:29;;;;;;;;;;;20.70;1.00;;;;;;15693120;22;19930;-37
2023/09/03 15:56:31;;;;;;;;;;;20.70;10.10;;;;;;15657226;22;20001;-37
2023/09/03 16:02:33;;;;;;;;;;;20.60;1.00;;;;;;15675707;22;19922;-36
2023/09/03 16:08:35;;;;;;;;;;;20.60;11.20;;;;;;15671699;22;19941;-36
2023/09/03 16:14:36;;;;;;;;;;;20.60;14.80;;;;;;15682952;22;19923;-36
2023/09/03 16:20:39;;;;;;;;;;;20.60;25.20;;;;;;15664040;22;19923;-36
2023/09/03 16:26:40;;;;;;;;;;;20.50;20.80;;;;;;15671689;22;19967;-36
2023/09/03 16:32:43;;;;;;;;;;;20.30;7.20;;;;;;15649725;22;19922;-36
2023/09/03 16:38:44;;;;;;;;;;;20.20;34.70;;;;;;15683710;22;19954;-34
2023/09/03 16:44:46;;;;;;;;;;;20.30;45.40;;;;;;15681810;22;20013;-34
2023/09/03 16:50:48;;;;;;;;;;;20.00;4.30;;;;;;15686353;22;20295;-34
2023/09/03 16:56:50;;;;;;;;;;;19.80;1.00;;;;;;15686668;22;20340;-34
2023/09/03 17:02:52;;;;;;;;;;;19.80;37.90;;;;;;15699591;22;20316;-35
2023/09/03 17:08:54;;;;;;;;;;;19.80;56.40;;;;;;15701256;22;20264;-35
2023/09/03 17:14:56;;;;;;;;;;;20.00;81.90;;;;;;15696631;22;20004;-35
2023/09/03 17:20:58;;;;;;;;;;;19.90;84.20;;;;;;15684631;22;20307;-35
2023/09/03 17:27:00;;;;;;;;;;;19.90;92.70;;;;;;15687663;22;19952;-35
2023/09/03 17:33:01;;;;;;;;;;;19.90;89.70;;;;;;15691220;22;19922;-35
2023/09/03 17:39:04;;;;;;;;;;;19.80;70.60;;;;;;15694366;22;20311;-35
2023/09/03 17:45:06;;;;;;;;;;;19.70;83.70;;;;;;15695953;22;19927;-35
2023/09/03 17:51:08;;;;;;;;;;;19.40;63.00;;;;;;15699040;22;19973;-35
2023/09/03 17:57:09;;;;;;;;;;;19.10;63.20;;;;;;15672585;22;20364;-35
2023/09/03 18:03:11;;;;;;;;;;;18.90;91.40;;;;;;15672171;22;19924;-36
2023/09/03 18:09:13;;;;;;;;;;;18.70;99.90;;;;;;15662787;22;19929;-35
2023/09/03 18:15:15;;;;;;;;;;;18.60;94.40;;;;;;15649172;22;20035;-35
2023/09/03 18:21:20;;;;;;;;;;;18.50;99.90;;;;;;15674583;22;19923;-35
2023/09/03 18:27:21;;;;;;;;;;;18.20;99.90;;;;;;15686933;22;19922;-35
2023/09/03 18:33:24;;;;;;;;;;;18.10;99.90;;;;;;15652194;22;20248;-35
2023/09/03 18:39:26;;;;;;;;;;;17.80;99.90;;;;;;15682445;22;19980;-35
2023/09/03 18:45:28;;;;;;;;;;;17.70;99.90;;;;;;15686618;22;19923;-37
2023/09/03 18:51:30;;;;;;;;;;;17.50;99.90;;;;;;15653358;22;19958;-37
2023/09/03 18:57:31;;;;;;;;;;;17.30;99.90;;;;;;15697055;22;19918;-35
2023/09/03 19:03:33;;;;;;;;;;;17.30;99.90;;;;;;15699691;22;20323;-36
2023/09/03 19:09:37;;;;;;;;;;;17.00;99.90;;;;;;15698772;22;19928;-36
2023/09/03 19:15:39;;;;;;;;;;;16.90;99.90;;;;;;15702332;22;20056;-35
2023/09/03 19:21:41;;;;;;;;;;;17.00;99.90;;;;;;15696913;22;19930;-36
2023/09/03 19:27:43;;;;;;;;;;;16.90;99.90;;;;;;15697259;22;19923;-35
2023/09/03 19:33:44;;;;;;;;;;;16.90;99.90;;;;;;15700231;22;19922;-35
2023/09/03 19:39:46;;;;;;;;;;;16.50;99.90;;;;;;15669152;22;20398;-35
2023/09/03 19:45:58;;;;;;;;;;;16.50;99.90;;;;;;15695353;22;19992;-36
2023/09/03 19:51:59;;;;;;;;;;;16.60;99.90;;;;;;15697283;22;19922;-36
2023/09/03 19:58:01;;;;;;;;;;;16.70;99.90;;;;;;15658554;22;20377;-35
2023/09/03 20:04:03;;;;;;;;;;;16.80;99.90;;;;;;15669797;22;20043;-35
2023/09/03 20:10:05;;;;;;;;;;;16.70;99.90;;;;;;15686962;22;19922;-35
2023/09/03 20:16:07;;;;;;;;;;;16.60;99.90;;;;;;15655272;22;20653;-35
2023/09/03 20:22:09;;;;;;;;;;;16.50;99.90;;;;;;15684790;22;19923;-35
2023/09/03 20:28:11;;;;;;;;;;;16.50;99.90;;;;;;15678810;22;20463;-37
2023/09/03 20:34:12;;;;;;;;;;;16.40;99.90;;;;;;15686944;22;20052;-35
2023/09/03 20:40:15;;;;;;;;;;;16.30;99.90;;;;;;15688471;22;20376;-35
2023/09/03 20:46:17;;;;;;;;;;;16.30;99.90;;;;;;15686935;22;19934;-35
2023/09/03 20:52:18;;;;;;;;;;;16.20;99.90;;;;;;15691889;22;19923;-35
2023/09/03 20:58:21;;;;;;;;;;;16.20;99.90;;;;;;15690900;22;19953;-35
2023/09/03 21:04:23;;;;;;;;;;;16.10;99.90;;;;;;15700940;22;19937;-36
2023/09/03 21:10:25;;;;;;;;;;;16.10;99.90;;;;;;15699057;22;20435;-35
2023/09/03 21:16:27;;;;;;;;;;;16.10;99.90;;;;;;15701677;22;20447;-35
2023/09/03 21:22:29;;;;;;;;;;;15.90;99.90;;;;;;15700954;22;19926;-35
2023/09/03 21:28:30;;;;;;;;;;;15.90;99.90;;;;;;15702123;22;19993;-35
2023/09/03 21:34:32;;;;;;;;;;;15.90;99.90;;;;;;15703936;22;20065;-36
2023/09/03 21:40:34;;;;;;;;;;;15.70;99.90;;;;;;15699512;22;20312;-35
2023/09/03 21:46:36;;;;;;;;;;;15.80;99.90;;;;;;15700628;22;20311;-35
2023/09/03 21:52:38;;;;;;;;;;;15.80;99.90;;;;;;15699260;22;20326;-36
2023/09/03 21:58:40;;;;;;;;;;;15.80;99.90;;;;;;15675658;22;20079;-36
2023/09/03 22:04:41;;;;;;;;;;;15.70;99.90;;;;;;15688046;22;19926;-35
2023/09/03 22:10:43;;;;;;;;;;;15.60;99.90;;;;;;15684954;22;20401;-35
2023/09/03 22:16:45;;;;;;;;;;;15.50;99.90;;;;;;15689351;22;19950;-36
2023/09/03 22:22:46;;;;;;;;;;;15.50;99.90;;;;;;15678748;22;19927;-35
2023/09/03 22:28:48;;;;;;;;;;;15.50;99.90;;;;;;15688155;22;19973;-36
2023/09/03 22:34:50;;;;;;;;;;;15.50;99.90;;;;;;15682874;22;19926;-36
2023/09/03 22:40:52;;;;;;;;;;;15.60;99.90;;;;;;15664150;22;20345;-35
2023/09/03 22:46:53;;;;;;;;;;;15.60;99.90;;;;;;15681595;22;19967;-35
2023/09/03 22:52:55;;;;;;;;;;;15.50;99.90;;;;;;15683536;22;19985;-35
2023/09/03 22:58:57;;;;;;;;;;;15.40;99.90;;;;;;15689252;22;19926;-35
2023/09/03 23:04:59;;;;;;;;;;;15.30;99.90;;;;;;15701486;22;19929;-35
2023/09/03 23:11:00;;;;;;;;;;;15.40;99.90;;;;;;15698220;22;20302;-35
2023/09/03 23:17:02;;;;;;;;;;;15.40;99.90;;;;;;15672763;22;19938;-35
2023/09/03 23:23:04;;;;;;;;;;;15.40;99.90;;;;;;15697930;22;19919;-35
2023/09/03 23:29:06;;;;;;;;;;;15.30;99.90;;;;;;15670068;22;19934;-35
2023/09/03 23:35:08;;;;;;;;;;;15.30;99.90;;;;;;15700671;22;20350;-35
2023/09/03 23:41:10;;;;;;;;;;;15.30;99.90;;;;;;15693168;22;20025;-35
2023/09/03 23:47:11;;;;;;;;;;;15.20;99.90;;;;;;15696165;22;19989;-36
2023/09/03 23:53:17;;;;;;;;;;;15.20;99.90;;;;;;15693195;22;19979;-36
2023/09/03 23:59:19;;;;;;;;;;;15.20;99.90;;;;;;15682765;22;20016;-36
